TimeFJT,TemperatureF,Dew PointF,Humidity,Sea Level PressureIn,VisibilityMPH,Wind Direction,Wind SpeedMPH,Gust SpeedMPH,PrecipitationIn,Events,Conditions,WindDirDegrees,DateUTC
12:00 AM,80,76,84,29.90,12,ESE,3.5,,,,Partly Cloudy,110,2013-04-20 12:00:00
12:00 AM,78.8,77.0,94,29.89,6.2,ESE,3.5,-,N/A,,Scattered Clouds,110,2013-04-20 12:00:00
1:00 AM,80.6,73.4,79,29.89,6.2,East,6.9,-,N/A,,Scattered Clouds,100,2013-04-20 13:00:00
2:00 AM,77.0,73.4,89,29.89,6.2,Calm,Calm,-,N/A,,Partly Cloudy,0,2013-04-20 14:00:00
3:00 AM,78,74,84,29.86,12,Calm,Calm,,,,Partly Cloudy,,2013-04-20 15:00:00
3:00 AM,77.0,73.4,89,29.86,6.2,Calm,Calm,-,N/A,,Partly Cloudy,0,2013-04-20 15:00:00
4:00 AM,75.2,73.4,94,29.86,6.2,Calm,Calm,-,N/A,,Partly Cloudy,0,2013-04-20 16:00:00
5:00 AM,75.2,73.4,94,29.86,6.2,Calm,Calm,-,N/A,,Partly Cloudy,0,2013-04-20 17:00:00
6:00 AM,74,73,96,29.87,12,Calm,Calm,,,,Partly Cloudy,,2013-04-20 18:00:00
6:00 AM,75.2,73.4,94,29.86,6.2,Calm,Calm,-,N/A,,Scattered Clouds,0,2013-04-20 18:00:00
7:00 AM,73.4,73.4,100,29.89,6.2,Calm,Calm,-,N/A,,Scattered Clouds,0,2013-04-20 19:00:00
8:00 AM,78.8,75.2,89,29.89,31.1,East,5.8,-,N/A,,Scattered Clouds,80,2013-04-20 20:00:00
9:00 AM,85,75,65,29.92,31,ENE,11.5,,,,Partly Cloudy,60,2013-04-20 21:00:00
9:00 AM,86.0,75.2,70,29.92,31.1,ENE,11.5,-,N/A,,Scattered Clouds,60,2013-04-20 21:00:00
10:00 AM,86.0,73.4,66,29.89,31.1,ENE,16.1,-,N/A,,Scattered Clouds,70,2013-04-20 22:00:00
11:00 AM,86.0,75.2,70,29.89,6.2,NE,13.8,-,N/A,,Mostly Cloudy,40,2013-04-20 23:00:00
12:00 PM,87,73,55,29.88,31,ENE,12.7,,,,Partly Cloudy,60,2013-04-21 00:00:00
12:00 PM,86.0,73.4,66,29.86,6.2,ENE,12.7,-,N/A,,Mostly Cloudy,60,2013-04-21 00:00:00
1:00 PM,87.8,75.2,66,29.86,6.2,East,12.7,-,N/A,,Mostly Cloudy,80,2013-04-21 01:00:00
2:00 PM,87.8,75.2,66,29.83,6.2,North,10.4,-,N/A,,Mostly Cloudy,7,2013-04-21 02:00:00
3:00 PM,86,73,57,29.83,31,NE,10.4,,,,Partly Cloudy,50,2013-04-21 03:00:00
3:00 PM,86.0,73.4,66,29.83,6.2,NE,10.4,-,N/A,,Mostly Cloudy,50,2013-04-21 03:00:00
4:00 PM,84.2,73.4,70,29.83,6.2,NNE,8.1,-,N/A,,Mostly Cloudy,20,2013-04-21 04:00:00
5:00 PM,84.2,75.2,74,29.83,6.2,NE,8.1,-,N/A,,Mostly Cloudy,50,2013-04-21 05:00:00
6:00 PM,82,75,73,29.85,31,NE,4.6,,,,Partly Cloudy,50,2013-04-21 06:00:00
6:00 PM,82.4,75.2,79,29.83,6.2,NE,4.6,-,N/A,,Scattered Clouds,50,2013-04-21 06:00:00
7:00 PM,80.6,77.0,89,29.86,6.2,ENE,10.4,-,N/A,Rain,Light Rain Showers,70,2013-04-21 07:00:00
8:00 PM,80.6,75.2,84,29.89,6.2,East,5.8,-,N/A,,Mostly Cloudy,90,2013-04-21 08:00:00
9:00 PM,81,75,78,29.91,12,East,4.6,,,,Partly Cloudy,80,2013-04-21 09:00:00
9:00 PM,80.6,75.2,84,29.89,6.2,East,4.6,-,N/A,,Mostly Cloudy,80,2013-04-21 09:00:00
10:00 PM,80.6,77.0,89,29.89,6.2,East,6.9,-,N/A,,Scattered Clouds,90,2013-04-21 10:00:00
11:00 PM,78.8,75.2,89,29.89,6.2,East,5.8,-,N/A,,Mostly Cloudy,80,2013-04-21 11:00:00